createdAt,value
2023-05-13T00:05:56.772Z,981.58
2023-05-13T00:17:57.194Z,981.62
2023-05-13T00:29:57.615Z,981.54
2023-05-13T00:41:58.098Z,981.54
2023-05-13T00:53:58.500Z,981.61
2023-05-13T01:05:58.987Z,981.68
2023-05-13T01:17:59.422Z,981.85
2023-05-13T01:29:59.874Z,981.82
2023-05-13T01:42:00.311Z,981.96
2023-05-13T01:54:00.765Z,981.93
2023-05-13T02:06:01.255Z,981.92
2023-05-13T02:18:01.747Z,981.93
2023-05-13T02:30:02.144Z,981.87
2023-05-13T02:42:02.621Z,981.98
2023-05-13T02:54:03.019Z,982.00
2023-05-13T03:06:03.500Z,982.09
2023-05-13T03:18:03.989Z,982.10
2023-05-13T03:30:04.418Z,982.14
2023-05-13T03:42:04.857Z,982.12
2023-05-13T03:54:05.306Z,982.24
2023-05-13T04:06:05.765Z,982.23
2023-05-13T04:18:06.302Z,982.34
2023-05-13T04:30:06.664Z,982.38
2023-05-13T04:42:07.136Z,982.52
2023-05-13T04:54:07.574Z,982.62
2023-05-13T05:06:08.032Z,982.68
2023-05-13T05:18:08.740Z,982.71
2023-05-13T05:30:08.907Z,982.75
2023-05-13T05:42:09.371Z,982.91
2023-05-13T05:54:09.837Z,982.87
2023-05-13T06:06:10.270Z,982.90
2023-05-13T06:18:10.770Z,982.93
2023-05-13T06:30:11.220Z,982.92
2023-05-13T06:42:14.086Z,983.11
2023-05-13T06:54:12.130Z,983.10
2023-05-13T07:06:12.552Z,983.29
2023-05-13T07:18:13.050Z,983.41
2023-05-13T07:30:13.493Z,983.42
2023-05-13T07:42:13.912Z,983.48
2023-05-13T07:54:14.354Z,983.43
2023-05-13T08:06:14.810Z,983.45
2023-05-13T08:18:15.327Z,983.35
2023-05-13T08:30:15.713Z,983.39
2023-05-13T08:42:16.214Z,983.31
2023-05-13T08:54:16.649Z,983.31
2023-05-13T09:06:17.096Z,983.37
2023-05-13T09:18:19.125Z,983.37
2023-05-13T09:30:17.983Z,983.39
2023-05-13T09:42:18.480Z,983.32
2023-05-13T09:54:18.884Z,983.40
2023-05-13T10:06:19.359Z,983.44
2023-05-13T10:18:19.852Z,983.41
2023-05-13T10:30:20.363Z,983.42
2023-05-13T10:42:20.713Z,983.45
2023-05-13T10:54:21.242Z,983.46
2023-05-13T11:06:21.671Z,983.49
2023-05-13T11:18:22.060Z,983.56
2023-05-13T11:30:22.895Z,983.68
2023-05-13T11:42:22.973Z,983.72
2023-05-13T11:54:23.425Z,983.70
2023-05-13T12:06:23.931Z,983.48
2023-05-13T12:18:24.461Z,983.27
2023-05-13T12:30:24.785Z,983.23
2023-05-13T12:42:25.255Z,983.52
2023-05-13T12:54:25.685Z,983.57
2023-05-13T13:06:26.164Z,983.62
2023-05-13T13:18:26.629Z,983.48
2023-05-13T13:30:27.036Z,983.44
2023-05-13T13:42:40.107Z,983.49
2023-05-13T13:54:28.012Z,983.47
2023-05-13T14:06:28.436Z,983.43
2023-05-13T14:18:28.935Z,983.53
2023-05-13T14:30:29.423Z,983.55
2023-05-13T14:42:29.777Z,983.45
2023-05-13T14:54:30.194Z,983.45
2023-05-13T15:06:30.680Z,983.44
2023-05-13T15:18:31.201Z,983.58
2023-05-13T15:30:31.646Z,983.56
2023-05-13T15:42:32.059Z,983.48
2023-05-13T15:54:32.512Z,983.50
2023-05-13T16:06:32.921Z,983.53
2023-05-13T16:18:33.471Z,983.56
2023-05-13T16:30:33.855Z,983.61
2023-05-13T16:42:34.328Z,983.49
2023-05-13T16:54:34.756Z,983.24
2023-05-13T17:06:35.252Z,983.18
2023-05-13T17:18:35.713Z,983.16
2023-05-13T17:30:36.103Z,983.34
2023-05-13T17:42:36.560Z,983.41
2023-05-13T17:54:37.047Z,983.54
2023-05-13T18:06:37.492Z,983.64
2023-05-13T18:18:38.038Z,983.79
2023-05-13T18:30:38.391Z,983.80
2023-05-13T18:42:38.853Z,983.80
2023-05-13T18:54:39.694Z,983.97
2023-05-13T19:06:39.723Z,983.99
2023-05-13T19:18:40.223Z,984.02
2023-05-13T19:30:40.681Z,984.02
2023-05-13T19:42:41.093Z,984.09
2023-05-13T19:54:41.611Z,984.19
2023-05-13T20:06:42.036Z,984.01
2023-05-13T20:18:42.611Z,983.93
2023-05-13T20:30:42.962Z,983.92
2023-05-13T20:42:43.408Z,984.00
2023-05-13T20:54:43.808Z,983.98
2023-05-13T21:06:44.310Z,983.88
2023-05-13T21:18:44.773Z,983.78
2023-05-13T21:30:45.178Z,983.62
2023-05-13T21:42:45.640Z,983.66
2023-05-13T21:54:46.128Z,983.67
2023-05-13T22:06:46.534Z,983.70
2023-05-13T22:18:47.085Z,983.66
2023-05-13T22:30:47.418Z,983.71
2023-05-13T22:42:47.959Z,983.56
2023-05-13T22:54:48.355Z,983.48
2023-05-13T23:06:48.833Z,983.34
2023-05-13T23:18:49.272Z,983.23
2023-05-13T23:30:49.734Z,983.10
2023-05-13T23:42:50.162Z,983.05
2023-05-13T23:54:50.786Z,983.02
